sensor_id;sensor_type;location;lat;lon;timestamp;P1;durP1;ratioP1;P2;durP2;ratioP2
7171;SDS011;3627;46.544;14.944;2023-04-01T00:02:03;2.78;;;2.58;;
7171;SDS011;3627;46.544;14.944;2023-04-01T00:04:29;3.15;;;2.63;;
7171;SDS011;3627;46.544;14.944;2023-04-01T00:06:55;2.67;;;2.47;;
7171;SDS011;3627;46.544;14.944;2023-04-01T00:09:22;2.65;;;2.42;;
7171;SDS011;3627;46.544;14.944;2023-04-01T00:11:49;2.80;;;2.60;;
7171;SDS011;3627;46.544;14.944;2023-04-01T00:14:16;3.03;;;2.47;;
7171;SDS011;3627;46.544;14.944;2023-04-01T00:16:42;3.20;;;2.85;;
7171;SDS011;3627;46.544;14.944;2023-04-01T00:19:09;3.17;;;2.88;;
7171;SDS011;3627;46.544;14.944;2023-04-01T00:21:35;3.17;;;2.88;;
7171;SDS011;3627;46.544;14.944;2023-04-01T00:24:01;3.97;;;3.05;;
7171;SDS011;3627;46.544;14.944;2023-04-01T00:26:28;6.47;;;2.85;;
7171;SDS011;3627;46.544;14.944;2023-04-01T00:28:56;2.50;;;2.30;;
7171;SDS011;3627;46.544;14.944;2023-04-01T00:31:22;2.78;;;2.50;;
7171;SDS011;3627;46.544;14.944;2023-04-01T00:33:48;3.25;;;2.40;;
7171;SDS011;3627;46.544;14.944;2023-04-01T00:36:16;2.40;;;2.30;;
7171;SDS011;3627;46.544;14.944;2023-04-01T00:38:43;3.92;;;2.47;;
7171;SDS011;3627;46.544;14.944;2023-04-01T00:41:10;2.33;;;2.13;;
7171;SDS011;3627;46.544;14.944;2023-04-01T00:43:39;2.25;;;2.05;;
7171;SDS011;3627;46.544;14.944;2023-04-01T00:46:07;2.70;;;2.50;;
7171;SDS011;3627;46.544;14.944;2023-04-01T00:48:34;2.88;;;2.67;;
7171;SDS011;3627;46.544;14.944;2023-04-01T00:51:02;3.08;;;2.72;;
7171;SDS011;3627;46.544;14.944;2023-04-01T00:53:30;3.20;;;2.90;;
7171;SDS011;3627;46.544;14.944;2023-04-01T00:55:58;4.10;;;2.80;;
7171;SDS011;3627;46.544;14.944;2023-04-01T00:58:26;2.80;;;2.40;;
7171;SDS011;3627;46.544;14.944;2023-04-01T01:00:54;3.50;;;3.00;;
7171;SDS011;3627;46.544;14.944;2023-04-01T01:03:22;2.63;;;2.42;;
7171;SDS011;3627;46.544;14.944;2023-04-01T01:05:53;3.40;;;2.78;;
7171;SDS011;3627;46.544;14.944;2023-04-01T01:08:24;2.65;;;2.45;;
7171;SDS011;3627;46.544;14.944;2023-04-01T01:10:55;3.05;;;2.28;;
7171;SDS011;3627;46.544;14.944;2023-04-01T01:13:22;2.55;;;2.45;;
7171;SDS011;3627;46.544;14.944;2023-04-01T01:15:52;2.45;;;2.25;;
7171;SDS011;3627;46.544;14.944;2023-04-01T01:18:23;2.70;;;2.50;;
7171;SDS011;3627;46.544;14.944;2023-04-01T01:23:43;4.18;;;2.60;;
7171;SDS011;3627;46.544;14.944;2023-04-01T01:26:23;2.90;;;2.70;;
7171;SDS011;3627;46.544;14.944;2023-04-01T01:28:57;2.97;;;2.78;;
7171;SDS011;3627;46.544;14.944;2023-04-01T01:31:29;2.97;;;2.70;;
7171;SDS011;3627;46.544;14.944;2023-04-01T01:34:03;2.47;;;2.28;;
7171;SDS011;3627;46.544;14.944;2023-04-01T01:36:34;2.50;;;2.30;;
7171;SDS011;3627;46.544;14.944;2023-04-01T01:39:00;2.65;;;2.45;;
7171;SDS011;3627;46.544;14.944;2023-04-01T01:41:27;2.80;;;2.42;;
7171;SDS011;3627;46.544;14.944;2023-04-01T01:43:54;2.53;;;2.33;;
7171;SDS011;3627;46.544;14.944;2023-04-01T01:46:22;3.45;;;2.63;;
7171;SDS011;3627;46.544;14.944;2023-04-01T01:48:49;4.45;;;2.67;;
7171;SDS011;3627;46.544;14.944;2023-04-01T01:51:16;3.05;;;2.40;;
7171;SDS011;3627;46.544;14.944;2023-04-01T01:53:44;2.55;;;2.35;;
7171;SDS011;3627;46.544;14.944;2023-04-01T01:56:11;3.67;;;2.28;;
7171;SDS011;3627;46.544;14.944;2023-04-01T01:58:39;2.67;;;2.47;;
7171;SDS011;3627;46.544;14.944;2023-04-01T02:01:07;2.60;;;2.47;;
7171;SDS011;3627;46.544;14.944;2023-04-01T02:03:35;2.50;;;2.40;;
7171;SDS011;3627;46.544;14.944;2023-04-01T02:06:04;4.57;;;2.55;;
7171;SDS011;3627;46.544;14.944;2023-04-01T02:08:33;2.35;;;2.25;;
7171;SDS011;3627;46.544;14.944;2023-04-01T02:11:03;2.40;;;2.20;;
7171;SDS011;3627;46.544;14.944;2023-04-01T02:13:31;2.60;;;2.40;;
7171;SDS011;3627;46.544;14.944;2023-04-01T02:16:01;2.60;;;2.40;;
7171;SDS011;3627;46.544;14.944;2023-04-01T02:18:29;3.22;;;2.55;;
7171;SDS011;3627;46.544;14.944;2023-04-01T02:20:56;2.35;;;2.22;;
7171;SDS011;3627;46.544;14.944;2023-04-01T02:23:23;2.53;;;2.30;;
7171;SDS011;3627;46.544;14.944;2023-04-01T02:25:50;2.67;;;2.30;;
7171;SDS011;3627;46.544;14.944;2023-04-01T02:28:17;2.72;;;2.50;;
7171;SDS011;3627;46.544;14.944;2023-04-01T02:30:45;2.15;;;2.00;;
7171;SDS011;3627;46.544;14.944;2023-04-01T02:33:13;2.65;;;2.45;;
7171;SDS011;3627;46.544;14.944;2023-04-01T02:35:40;2.75;;;2.55;;
7171;SDS011;3627;46.544;14.944;2023-04-01T02:38:06;2.15;;;2.05;;
7171;SDS011;3627;46.544;14.944;2023-04-01T02:40:46;3.67;;;2.33;;
7171;SDS011;3627;46.544;14.944;2023-04-01T02:43:12;2.72;;;2.53;;
7171;SDS011;3627;46.544;14.944;2023-04-01T02:45:40;2.33;;;2.20;;
7171;SDS011;3627;46.544;14.944;2023-04-01T02:48:07;2.42;;;2.33;;
7171;SDS011;3627;46.544;14.944;2023-04-01T02:50:33;3.05;;;2.85;;
7171;SDS011;3627;46.544;14.944;2023-04-01T02:52:59;2.50;;;2.40;;
7171;SDS011;3627;46.544;14.944;2023-04-01T02:55:27;3.97;;;2.67;;
7171;SDS011;3627;46.544;14.944;2023-04-01T02:57:55;2.55;;;2.35;;
7171;SDS011;3627;46.544;14.944;2023-04-01T03:00:21;2.97;;;2.10;;
7171;SDS011;3627;46.544;14.944;2023-04-01T03:02:49;2.58;;;2.38;;
7171;SDS011;3627;46.544;14.944;2023-04-01T03:05:15;2.38;;;2.28;;
7171;SDS011;3627;46.544;14.944;2023-04-01T03:07:42;2.80;;;2.60;;
7171;SDS011;3627;46.544;14.944;2023-04-01T03:10:08;3.25;;;3.05;;
7171;SDS011;3627;46.544;14.944;2023-04-01T03:12:35;3.38;;;3.10;;
7171;SDS011;3627;46.544;14.944;2023-04-01T03:15:02;3.88;;;3.45;;
7171;SDS011;3627;46.544;14.944;2023-04-01T03:17:28;4.13;;;3.83;;
7171;SDS011;3627;46.544;14.944;2023-04-01T03:19:56;3.13;;;2.83;;
7171;SDS011;3627;46.544;14.944;2023-04-01T03:22:22;3.17;;;2.97;;
7171;SDS011;3627;46.544;14.944;2023-04-01T03:24:49;3.72;;;3.35;;
7171;SDS011;3627;46.544;14.944;2023-04-01T03:27:15;3.03;;;2.72;;
7171;SDS011;3627;46.544;14.944;2023-04-01T03:29:42;2.75;;;2.55;;
7171;SDS011;3627;46.544;14.944;2023-04-01T03:32:08;2.58;;;2.47;;
7171;SDS011;3627;46.544;14.944;2023-04-01T03:34:35;4.78;;;2.78;;
7171;SDS011;3627;46.544;14.944;2023-04-01T03:37:02;2.88;;;2.67;;
7171;SDS011;3627;46.544;14.944;2023-04-01T03:39:29;2.92;;;2.72;;
7171;SDS011;3627;46.544;14.944;2023-04-01T03:41:56;2.80;;;2.60;;
7171;SDS011;3627;46.544;14.944;2023-04-01T03:44:23;3.15;;;2.90;;
7171;SDS011;3627;46.544;14.944;2023-04-01T03:46:49;3.40;;;3.10;;
7171;SDS011;3627;46.544;14.944;2023-04-01T03:49:16;3.90;;;2.97;;
7171;SDS011;3627;46.544;14.944;2023-04-01T03:51:43;4.05;;;3.75;;
7171;SDS011;3627;46.544;14.944;2023-04-01T03:54:11;3.40;;;3.10;;
7171;SDS011;3627;46.544;14.944;2023-04-01T03:56:37;3.65;;;3.35;;
7171;SDS011;3627;46.544;14.944;2023-04-01T03:59:05;3.67;;;3.10;;
7171;SDS011;3627;46.544;14.944;2023-04-01T04:01:32;3.33;;;3.03;;
7171;SDS011;3627;46.544;14.944;2023-04-01T04:03:58;3.33;;;3.08;;
7171;SDS011;3627;46.544;14.944;2023-04-01T04:06:25;3.90;;;3.38;;
7171;SDS011;3627;46.544;14.944;2023-04-01T04:08:52;3.50;;;3.20;;
7171;SDS011;3627;46.544;14.944;2023-04-01T04:11:20;3.30;;;3.10;;
7171;SDS011;3627;46.544;14.944;2023-04-01T04:13:47;3.97;;;3.58;;
7171;SDS011;3627;46.544;14.944;2023-04-01T04:16:13;4.85;;;4.38;;
7171;SDS011;3627;46.544;14.944;2023-04-01T04:18:40;4.05;;;3.63;;
7171;SDS011;3627;46.544;14.944;2023-04-01T04:21:06;3.42;;;3.08;;
7171;SDS011;3627;46.544;14.944;2023-04-01T04:23:33;2.60;;;2.40;;
7171;SDS011;3627;46.544;14.944;2023-04-01T04:26:00;2.75;;;2.55;;
7171;SDS011;3627;46.544;14.944;2023-04-01T04:28:28;3.92;;;2.65;;
7171;SDS011;3627;46.544;14.944;2023-04-01T04:30:55;3.17;;;2.90;;
7171;SDS011;3627;46.544;14.944;2023-04-01T04:33:21;3.90;;;3.00;;
7171;SDS011;3627;46.544;14.944;2023-04-01T04:35:48;5.43;;;4.03;;
7171;SDS011;3627;46.544;14.944;2023-04-01T04:38:14;3.75;;;3.22;;
7171;SDS011;3627;46.544;14.944;2023-04-01T04:40:41;3.30;;;2.80;;
7171;SDS011;3627;46.544;14.944;2023-04-01T04:43:09;2.58;;;2.40;;
7171;SDS011;3627;46.544;14.944;2023-04-01T04:45:37;2.92;;;2.65;;
7171;SDS011;3627;46.544;14.944;2023-04-01T04:48:04;2.83;;;2.63;;
7171;SDS011;3627;46.544;14.944;2023-04-01T04:50:30;5.78;;;3.60;;
7171;SDS011;3627;46.544;14.944;2023-04-01T04:52:57;4.78;;;3.78;;
7171;SDS011;3627;46.544;14.944;2023-04-01T04:55:23;3.88;;;3.58;;
7171;SDS011;3627;46.544;14.944;2023-04-01T04:57:50;3.40;;;3.10;;
7171;SDS011;3627;46.544;14.944;2023-04-01T05:00:16;4.10;;;3.70;;
7171;SDS011;3627;46.544;14.944;2023-04-01T05:02:44;4.07;;;3.70;;
7171;SDS011;3627;46.544;14.944;2023-04-01T05:05:11;3.20;;;2.90;;
7171;SDS011;3627;46.544;14.944;2023-04-01T05:07:37;2.42;;;2.30;;
7171;SDS011;3627;46.544;14.944;2023-04-01T05:10:04;3.47;;;3.25;;
7171;SDS011;3627;46.544;14.944;2023-04-01T05:12:30;4.50;;;3.17;;
7171;SDS011;3627;46.544;14.944;2023-04-01T05:15:01;5.88;;;3.97;;
7171;SDS011;3627;46.544;14.944;2023-04-01T05:17:27;3.88;;;3.30;;
7171;SDS011;3627;46.544;14.944;2023-04-01T05:19:55;2.92;;;2.60;;
7171;SDS011;3627;46.544;14.944;2023-04-01T05:22:21;2.60;;;2.40;;
7171;SDS011;3627;46.544;14.944;2023-04-01T05:24:48;2.35;;;2.15;;
7171;SDS011;3627;46.544;14.944;2023-04-01T05:27:14;2.40;;;2.20;;
7171;SDS011;3627;46.544;14.944;2023-04-01T05:29:41;2.42;;;2.20;;
7171;SDS011;3627;46.544;14.944;2023-04-01T05:32:07;2.50;;;2.30;;
7171;SDS011;3627;46.544;14.944;2023-04-01T05:34:33;3.08;;;2.88;;
7171;SDS011;3627;46.544;14.944;2023-04-01T05:37:01;2.97;;;2.78;;
7171;SDS011;3627;46.544;14.944;2023-04-01T05:39:28;2.92;;;2.28;;
7171;SDS011;3627;46.544;14.944;2023-04-01T05:41:54;3.35;;;2.63;;
7171;SDS011;3627;46.544;14.944;2023-04-01T05:44:20;3.90;;;3.30;;
7171;SDS011;3627;46.544;14.944;2023-04-01T05:46:47;3.53;;;3.22;;
7171;SDS011;3627;46.544;14.944;2023-04-01T05:49:13;3.40;;;3.10;;
7171;SDS011;3627;46.544;14.944;2023-04-01T05:51:40;4.30;;;3.70;;
7171;SDS011;3627;46.544;14.944;2023-04-01T05:54:07;3.17;;;2.97;;
7171;SDS011;3627;46.544;14.944;2023-04-01T05:56:34;3.20;;;2.95;;
7171;SDS011;3627;46.544;14.944;2023-04-01T05:59:00;3.42;;;3.13;;
7171;SDS011;3627;46.544;14.944;2023-04-01T06:01:26;3.00;;;2.80;;
7171;SDS011;3627;46.544;14.944;2023-04-01T06:03:53;2.80;;;2.60;;
7171;SDS011;3627;46.544;14.944;2023-04-01T06:06:20;5.60;;;3.30;;
7171;SDS011;3627;46.544;14.944;2023-04-01T06:08:49;3.70;;;3.40;;
7171;SDS011;3627;46.544;14.944;2023-04-01T06:11:19;3.63;;;3.33;;
7171;SDS011;3627;46.544;14.944;2023-04-01T06:13:53;3.83;;;3.15;;
7171;SDS011;3627;46.544;14.944;2023-04-01T06:16:27;3.80;;;3.45;;
7171;SDS011;3627;46.544;14.944;2023-04-01T06:18:59;3.72;;;3.40;;
7171;SDS011;3627;46.544;14.944;2023-04-01T06:21:37;3.90;;;3.10;;
7171;SDS011;3627;46.544;14.944;2023-04-01T06:24:10;3.15;;;2.88;;
7171;SDS011;3627;46.544;14.944;2023-04-01T06:26:45;3.30;;;3.00;;
7171;SDS011;3627;46.544;14.944;2023-04-01T06:29:25;3.97;;;3.20;;
7171;SDS011;3627;46.544;14.944;2023-04-01T06:31:57;4.20;;;3.08;;
7171;SDS011;3627;46.544;14.944;2023-04-01T06:34:39;4.55;;;2.88;;
7171;SDS011;3627;46.544;14.944;2023-04-01T06:37:11;2.92;;;2.63;;
7171;SDS011;3627;46.544;14.944;2023-04-01T06:39:47;2.97;;;2.67;;
7171;SDS011;3627;46.544;14.944;2023-04-01T06:42:25;2.63;;;2.42;;
7171;SDS011;3627;46.544;14.944;2023-04-01T06:44:59;3.10;;;2.90;;
7171;SDS011;3627;46.544;14.944;2023-04-01T06:47:33;2.60;;;2.30;;
7171;SDS011;3627;46.544;14.944;2023-04-01T06:50:04;3.00;;;2.70;;
7171;SDS011;3627;46.544;14.944;2023-04-01T06:52:36;2.70;;;2.50;;
7171;SDS011;3627;46.544;14.944;2023-04-01T06:55:12;3.25;;;2.95;;
7171;SDS011;3627;46.544;14.944;2023-04-01T06:57:42;4.53;;;3.30;;
7171;SDS011;3627;46.544;14.944;2023-04-01T07:00:12;2.70;;;2.50;;
7171;SDS011;3627;46.544;14.944;2023-04-01T07:02:41;3.63;;;2.70;;
7171;SDS011;3627;46.544;14.944;2023-04-01T07:05:10;3.00;;;2.70;;
7171;SDS011;3627;46.544;14.944;2023-04-01T07:07:38;3.70;;;2.70;;
7171;SDS011;3627;46.544;14.944;2023-04-01T07:10:09;2.78;;;2.58;;
7171;SDS011;3627;46.544;14.944;2023-04-01T07:12:39;4.07;;;2.55;;
7171;SDS011;3627;46.544;14.944;2023-04-01T07:15:12;2.88;;;2.67;;
7171;SDS011;3627;46.544;14.944;2023-04-01T07:17:39;3.17;;;2.50;;
7171;SDS011;3627;46.544;14.944;2023-04-01T07:20:10;3.17;;;2.38;;
7171;SDS011;3627;46.544;14.944;2023-04-01T07:22:39;2.55;;;2.35;;
7171;SDS011;3627;46.544;14.944;2023-04-01T07:25:11;2.67;;;2.47;;
7171;SDS011;3627;46.544;14.944;2023-04-01T07:27:37;3.58;;;2.30;;
7171;SDS011;3627;46.544;14.944;2023-04-01T07:30:06;5.00;;;2.95;;
7171;SDS011;3627;46.544;14.944;2023-04-01T07:32:40;3.08;;;2.83;;
7171;SDS011;3627;46.544;14.944;2023-04-01T07:35:09;3.25;;;2.70;;
7171;SDS011;3627;46.544;14.944;2023-04-01T07:37:42;5.88;;;2.75;;
7171;SDS011;3627;46.544;14.944;2023-04-01T07:40:15;3.80;;;2.60;;
7171;SDS011;3627;46.544;14.944;2023-04-01T07:42:49;3.05;;;2.35;;
7171;SDS011;3627;46.544;14.944;2023-04-01T07:45:21;2.80;;;2.47;;
7171;SDS011;3627;46.544;14.944;2023-04-01T07:50:35;3.80;;;2.35;;
7171;SDS011;3627;46.544;14.944;2023-04-01T07:53:05;3.70;;;2.20;;
7171;SDS011;3627;46.544;14.944;2023-04-01T07:55:35;2.10;;;1.90;;
7171;SDS011;3627;46.544;14.944;2023-04-01T07:58:05;2.38;;;1.63;;
7171;SDS011;3627;46.544;14.944;2023-04-01T08:00:36;2.15;;;1.95;;
7171;SDS011;3627;46.544;14.944;2023-04-01T08:03:12;3.53;;;2.28;;
7171;SDS011;3627;46.544;14.944;2023-04-01T08:05:47;2.00;;;1.90;;
7171;SDS011;3627;46.544;14.944;2023-04-01T08:08:18;2.22;;;1.60;;
7171;SDS011;3627;46.544;14.944;2023-04-01T08:10:46;4.03;;;2.50;;
7171;SDS011;3627;46.544;14.944;2023-04-01T08:13:15;5.88;;;2.17;;
7171;SDS011;3627;46.544;14.944;2023-04-01T08:15:45;2.25;;;2.05;;
7171;SDS011;3627;46.544;14.944;2023-04-01T08:18:16;2.25;;;1.60;;
7171;SDS011;3627;46.544;14.944;2023-04-01T08:20:47;1.77;;;1.48;;
7171;SDS011;3627;46.544;14.944;2023-04-01T08:23:15;1.67;;;1.50;;
7171;SDS011;3627;46.544;14.944;2023-04-01T08:25:44;1.90;;;1.50;;
7171;SDS011;3627;46.544;14.944;2023-04-01T08:28:15;1.75;;;1.65;;
7171;SDS011;3627;46.544;14.944;2023-04-01T08:30:43;1.80;;;1.70;;
7171;SDS011;3627;46.544;14.944;2023-04-01T09:00:03;2.00;;;1.90;;
7171;SDS011;3627;46.544;14.944;2023-04-01T09:05:24;2.60;;;2.17;;
7171;SDS011;3627;46.544;14.944;2023-04-01T09:07:55;2.35;;;2.15;;
7171;SDS011;3627;46.544;14.944;2023-04-01T09:10:36;2.45;;;2.25;;
7171;SDS011;3627;46.544;14.944;2023-04-01T09:13:14;2.13;;;1.92;;
7171;SDS011;3627;46.544;14.944;2023-04-01T09:16:05;1.90;;;1.80;;
7171;SDS011;3627;46.544;14.944;2023-04-01T09:21:18;1.70;;;1.60;;
7171;SDS011;3627;46.544;14.944;2023-04-01T09:24:10;1.60;;;1.50;;
7171;SDS011;3627;46.544;14.944;2023-04-01T09:26:44;1.60;;;1.50;;
7171;SDS011;3627;46.544;14.944;2023-04-01T09:29:18;1.60;;;1.50;;
7171;SDS011;3627;46.544;14.944;2023-04-01T09:31:53;1.60;;;1.50;;
7171;SDS011;3627;46.544;14.944;2023-04-01T09:39:24;1.95;;;1.65;;
7171;SDS011;3627;46.544;14.944;2023-04-01T09:41:55;2.20;;;1.60;;
7171;SDS011;3627;46.544;14.944;2023-04-01T09:44:23;2.08;;;1.50;;
7171;SDS011;3627;46.544;14.944;2023-04-01T09:51:47;3.33;;;2.08;;
7171;SDS011;3627;46.544;14.944;2023-04-01T09:54:21;2.10;;;2.00;;
7171;SDS011;3627;46.544;14.944;2023-04-01T10:10:48;3.08;;;2.78;;
7171;SDS011;3627;46.544;14.944;2023-04-01T10:16:07;1.95;;;1.85;;
7171;SDS011;3627;46.544;14.944;2023-04-01T10:24:33;2.30;;;1.80;;
7171;SDS011;3627;46.544;14.944;2023-04-01T10:27:12;2.22;;;2.03;;
7171;SDS011;3627;46.544;14.944;2023-04-01T10:35:26;11.25;;;8.23;;
7171;SDS011;3627;46.544;14.944;2023-04-01T10:41:01;6.18;;;5.47;;
7171;SDS011;3627;46.544;14.944;2023-04-01T10:43:49;4.80;;;3.58;;
7171;SDS011;3627;46.544;14.944;2023-04-01T10:52:09;9.30;;;7.38;;
7171;SDS011;3627;46.544;14.944;2023-04-01T10:54:48;4.03;;;2.50;;
7171;SDS011;3627;46.544;14.944;2023-04-01T10:57:24;5.82;;;3.45;;
7171;SDS011;3627;46.544;14.944;2023-04-01T11:05:41;3.25;;;1.65;;
7171;SDS011;3627;46.544;14.944;2023-04-01T11:08:25;1.92;;;1.73;;
7171;SDS011;3627;46.544;14.944;2023-04-01T11:11:17;2.42;;;2.10;;
7171;SDS011;3627;46.544;14.944;2023-04-01T11:14:05;2.38;;;1.80;;
7171;SDS011;3627;46.544;14.944;2023-04-01T11:19:39;2.45;;;2.20;;
7171;SDS011;3627;46.544;14.944;2023-04-01T11:27:53;4.50;;;2.90;;
7171;SDS011;3627;46.544;14.944;2023-04-01T11:30:33;1.98;;;1.77;;
7171;SDS011;3627;46.544;14.944;2023-04-01T11:33:05;2.85;;;1.73;;
7171;SDS011;3627;46.544;14.944;2023-04-01T11:35:38;2.20;;;2.00;;
7171;SDS011;3627;46.544;14.944;2023-04-01T11:38:18;2.33;;;2.13;;
7171;SDS011;3627;46.544;14.944;2023-04-01T11:40:47;1.70;;;1.55;;
7171;SDS011;3627;46.544;14.944;2023-04-01T11:43:19;1.70;;;1.60;;
7171;SDS011;3627;46.544;14.944;2023-04-01T11:45:48;1.52;;;1.42;;
7171;SDS011;3627;46.544;14.944;2023-04-01T11:48:23;1.67;;;1.58;;
7171;SDS011;3627;46.544;14.944;2023-04-01T11:51:00;1.55;;;1.45;;
7171;SDS011;3627;46.544;14.944;2023-04-01T11:53:33;1.48;;;1.38;;
7171;SDS011;3627;46.544;14.944;2023-04-01T11:56:07;1.63;;;1.48;;
7171;SDS011;3627;46.544;14.944;2023-04-01T11:58:55;3.75;;;2.20;;
7171;SDS011;3627;46.544;14.944;2023-04-01T12:01:26;1.50;;;1.40;;
7171;SDS011;3627;46.544;14.944;2023-04-01T12:04:09;2.00;;;1.58;;
7171;SDS011;3627;46.544;14.944;2023-04-01T12:06:38;1.33;;;1.23;;
7171;SDS011;3627;46.544;14.944;2023-04-01T12:09:08;5.18;;;3.53;;
7171;SDS011;3627;46.544;14.944;2023-04-01T12:11:38;4.30;;;2.30;;
7171;SDS011;3627;46.544;14.944;2023-04-01T12:14:11;2.67;;;1.75;;
7171;SDS011;3627;46.544;14.944;2023-04-01T12:16:45;2.70;;;2.17;;
7171;SDS011;3627;46.544;14.944;2023-04-01T12:19:15;16.70;;;10.65;;
7171;SDS011;3627;46.544;14.944;2023-04-01T12:21:45;7.40;;;4.85;;
7171;SDS011;3627;46.544;14.944;2023-04-01T12:26:59;2.25;;;1.60;;
7171;SDS011;3627;46.544;14.944;2023-04-01T12:29:37;1.52;;;1.42;;
7171;SDS011;3627;46.544;14.944;2023-04-01T12:32:09;2.67;;;1.77;;
7171;SDS011;3627;46.544;14.944;2023-04-01T12:34:53;2.20;;;2.00;;
7171;SDS011;3627;46.544;14.944;2023-04-01T12:37:26;1.52;;;1.40;;
7171;SDS011;3627;46.544;14.944;2023-04-01T12:40:01;2.20;;;1.58;;
7171;SDS011;3627;46.544;14.944;2023-04-01T12:42:38;2.15;;;1.40;;
7171;SDS011;3627;46.544;14.944;2023-04-01T12:45:17;1.63;;;1.52;;
7171;SDS011;3627;46.544;14.944;2023-04-01T12:50:39;1.33;;;1.23;;
7171;SDS011;3627;46.544;14.944;2023-04-01T12:55:59;1.67;;;1.58;;
7171;SDS011;3627;46.544;14.944;2023-04-01T12:58:44;2.70;;;1.40;;
7171;SDS011;3627;46.544;14.944;2023-04-01T13:01:29;1.90;;;1.48;;
7171;SDS011;3627;46.544;14.944;2023-04-01T13:04:12;1.60;;;1.10;;
7171;SDS011;3627;46.544;14.944;2023-04-01T13:06:48;1.40;;;1.30;;
7171;SDS011;3627;46.544;14.944;2023-04-01T13:09:24;1.92;;;1.45;;
7171;SDS011;3627;46.544;14.944;2023-04-01T13:16:47;1.95;;;1.60;;
7171;SDS011;3627;46.544;14.944;2023-04-01T13:19:16;1.42;;;1.33;;
7171;SDS011;3627;46.544;14.944;2023-04-01T14:37:30;1.20;;;1.20;;
7171;SDS011;3627;46.544;14.944;2023-04-01T14:40:18;1.38;;;1.27;;
7171;SDS011;3627;46.544;14.944;2023-04-01T14:42:54;1.30;;;1.20;;
7171;SDS011;3627;46.544;14.944;2023-04-01T14:45:29;0.90;;;0.90;;
7171;SDS011;3627;46.544;14.944;2023-04-01T14:47:58;1.20;;;1.20;;
7171;SDS011;3627;46.544;14.944;2023-04-01T14:50:26;1.10;;;1.10;;
7171;SDS011;3627;46.544;14.944;2023-04-01T14:52:57;1.30;;;1.20;;
7171;SDS011;3627;46.544;14.944;2023-04-01T14:55:30;1.67;;;1.33;;
7171;SDS011;3627;46.544;14.944;2023-04-01T14:57:58;1.30;;;1.23;;
7171;SDS011;3627;46.544;14.944;2023-04-01T15:00:25;1.40;;;1.30;;
7171;SDS011;3627;46.544;14.944;2023-04-01T15:02:53;1.45;;;1.40;;
7171;SDS011;3627;46.544;14.944;2023-04-01T15:05:26;2.83;;;1.40;;
7171;SDS011;3627;46.544;14.944;2023-04-01T15:10:40;5.50;;;2.28;;
7171;SDS011;3627;46.544;14.944;2023-04-01T15:13:11;2.38;;;1.75;;
7171;SDS011;3627;46.544;14.944;2023-04-01T15:15:40;2.17;;;1.55;;
7171;SDS011;3627;46.544;14.944;2023-04-01T15:18:09;1.50;;;1.40;;
7171;SDS011;3627;46.544;14.944;2023-04-01T15:20:50;2.45;;;1.77;;
7171;SDS011;3627;46.544;14.944;2023-04-01T15:23:35;1.63;;;1.50;;
7171;SDS011;3627;46.544;14.944;2023-04-01T15:26:13;2.70;;;1.60;;
7171;SDS011;3627;46.544;14.944;2023-04-01T15:28:44;2.03;;;1.60;;
7171;SDS011;3627;46.544;14.944;2023-04-01T15:31:12;2.83;;;1.30;;
7171;SDS011;3627;46.544;14.944;2023-04-01T15:36:29;3.30;;;1.65;;
7171;SDS011;3627;46.544;14.944;2023-04-01T15:38:58;4.60;;;2.00;;
7171;SDS011;3627;46.544;14.944;2023-04-01T15:41:34;2.33;;;1.63;;
7171;SDS011;3627;46.544;14.944;2023-04-01T15:44:02;1.50;;;1.40;;
7171;SDS011;3627;46.544;14.944;2023-04-01T15:46:44;1.48;;;1.38;;
7171;SDS011;3627;46.544;14.944;2023-04-01T15:49:20;1.50;;;1.40;;
7171;SDS011;3627;46.544;14.944;2023-04-01T15:52:02;1.40;;;1.30;;
7171;SDS011;3627;46.544;14.944;2023-04-01T15:54:37;1.35;;;1.27;;
7171;SDS011;3627;46.544;14.944;2023-04-01T15:57:17;2.13;;;1.98;;
7171;SDS011;3627;46.544;14.944;2023-04-01T15:59:53;4.32;;;2.15;;
7171;SDS011;3627;46.544;14.944;2023-04-01T16:02:21;4.83;;;1.63;;
7171;SDS011;3627;46.544;14.944;2023-04-01T16:04:54;1.75;;;1.50;;
7171;SDS011;3627;46.544;14.944;2023-04-01T16:07:27;2.60;;;2.00;;
7171;SDS011;3627;46.544;14.944;2023-04-01T16:12:44;2.90;;;2.40;;
7171;SDS011;3627;46.544;14.944;2023-04-01T16:22:33;3.42;;;2.40;;
7171;SDS011;3627;46.544;14.944;2023-04-01T16:25:13;2.75;;;2.00;;
7171;SDS011;3627;46.544;14.944;2023-04-01T16:27:42;3.55;;;1.50;;
7171;SDS011;3627;46.544;14.944;2023-04-01T16:30:24;1.73;;;1.63;;
7171;SDS011;3627;46.544;14.944;2023-04-01T16:32:53;5.43;;;3.28;;
7171;SDS011;3627;46.544;14.944;2023-04-01T16:35:23;7.95;;;4.45;;
7171;SDS011;3627;46.544;14.944;2023-04-01T16:37:52;11.30;;;6.00;;
7171;SDS011;3627;46.544;14.944;2023-04-01T16:40:23;10.55;;;5.13;;
7171;SDS011;3627;46.544;14.944;2023-04-01T16:42:52;10.10;;;5.90;;
7171;SDS011;3627;46.544;14.944;2023-04-01T16:45:24;11.25;;;6.05;;
7171;SDS011;3627;46.544;14.944;2023-04-01T16:50:19;5.68;;;3.80;;
7171;SDS011;3627;46.544;14.944;2023-04-01T16:52:57;2.30;;;2.00;;
7171;SDS011;3627;46.544;14.944;2023-04-01T16:55:33;2.10;;;1.90;;
7171;SDS011;3627;46.544;14.944;2023-04-01T16:58:00;3.13;;;1.65;;
7171;SDS011;3627;46.544;14.944;2023-04-01T17:00:29;3.85;;;2.63;;
7171;SDS011;3627;46.544;14.944;2023-04-01T17:03:09;2.55;;;1.60;;
7171;SDS011;3627;46.544;14.944;2023-04-01T17:05:47;1.80;;;1.70;;
7171;SDS011;3627;46.544;14.944;2023-04-01T17:08:17;2.10;;;1.40;;
7171;SDS011;3627;46.544;14.944;2023-04-01T17:10:49;1.58;;;1.48;;
7171;SDS011;3627;46.544;14.944;2023-04-01T17:16:10;2.13;;;1.67;;
7171;SDS011;3627;46.544;14.944;2023-04-01T17:18:40;3.17;;;1.60;;
7171;SDS011;3627;46.544;14.944;2023-04-01T17:21:07;4.35;;;1.88;;
7171;SDS011;3627;46.544;14.944;2023-04-01T18:02:41;5.70;;;2.60;;
7171;SDS011;3627;46.544;14.944;2023-04-01T18:05:27;3.45;;;2.15;;
7171;SDS011;3627;46.544;14.944;2023-04-01T18:07:58;2.70;;;2.50;;
7171;SDS011;3627;46.544;14.944;2023-04-01T18:10:27;2.60;;;2.40;;
7171;SDS011;3627;46.544;14.944;2023-04-01T18:13:00;2.30;;;2.17;;
7171;SDS011;3627;46.544;14.944;2023-04-01T18:15:28;5.72;;;2.47;;
7171;SDS011;3627;46.544;14.944;2023-04-01T18:20:36;4.18;;;3.28;;
7171;SDS011;3627;46.544;14.944;2023-04-01T18:23:06;4.00;;;2.90;;
7171;SDS011;3627;46.544;14.944;2023-04-01T18:25:38;3.45;;;2.63;;
7171;SDS011;3627;46.544;14.944;2023-04-01T18:28:17;4.43;;;2.60;;
7171;SDS011;3627;46.544;14.944;2023-04-01T18:30:50;2.90;;;2.55;;
7171;SDS011;3627;46.544;14.944;2023-04-01T18:33:18;5.63;;;2.60;;
7171;SDS011;3627;46.544;14.944;2023-04-01T18:35:49;3.80;;;2.30;;
7171;SDS011;3627;46.544;14.944;2023-04-01T18:38:16;16.08;;;6.80;;
7171;SDS011;3627;46.544;14.944;2023-04-01T18:40:46;17.08;;;7.85;;
7171;SDS011;3627;46.544;14.944;2023-04-01T18:43:17;6.53;;;4.63;;
7171;SDS011;3627;46.544;14.944;2023-04-01T18:45:47;5.10;;;3.60;;
7171;SDS011;3627;46.544;14.944;2023-04-01T18:48:22;5.47;;;3.60;;
7171;SDS011;3627;46.544;14.944;2023-04-01T18:50:52;2.78;;;2.58;;
7171;SDS011;3627;46.544;14.944;2023-04-01T18:53:22;4.25;;;2.80;;
7171;SDS011;3627;46.544;14.944;2023-04-01T18:55:50;3.00;;;2.70;;
7171;SDS011;3627;46.544;14.944;2023-04-01T19:01:12;4.55;;;2.33;;
7171;SDS011;3627;46.544;14.944;2023-04-01T19:03:41;6.70;;;3.30;;
7171;SDS011;3627;46.544;14.944;2023-04-01T19:06:15;3.42;;;2.78;;
7171;SDS011;3627;46.544;14.944;2023-04-01T19:08:43;6.65;;;3.88;;
7171;SDS011;3627;46.544;14.944;2023-04-01T19:11:11;5.70;;;3.90;;
7171;SDS011;3627;46.544;14.944;2023-04-01T19:13:44;8.52;;;4.95;;
7171;SDS011;3627;46.544;14.944;2023-04-01T19:16:17;8.50;;;5.32;;
7171;SDS011;3627;46.544;14.944;2023-04-01T19:18:50;9.40;;;5.60;;
7171;SDS011;3627;46.544;14.944;2023-04-01T19:21:25;14.02;;;8.27;;
7171;SDS011;3627;46.544;14.944;2023-04-01T19:24:15;11.88;;;7.05;;
7171;SDS011;3627;46.544;14.944;2023-04-01T19:26:45;7.20;;;5.10;;
7171;SDS011;3627;46.544;14.944;2023-04-01T19:29:17;6.43;;;4.30;;
7171;SDS011;3627;46.544;14.944;2023-04-01T19:31:50;4.82;;;4.07;;
7171;SDS011;3627;46.544;14.944;2023-04-01T19:34:20;8.45;;;5.93;;
7171;SDS011;3627;46.544;14.944;2023-04-01T19:36:50;7.80;;;5.25;;